sensor_id;sensor_type;location;lat;lon;timestamp;P1;durP1;ratioP1;P2;durP2;ratioP2
34960;SDS011;30789;52.030;7.110;2024-01-30T00:00:23;11.90;;;9.02;;
34960;SDS011;30789;52.030;7.110;2024-01-30T00:02:51;15.80;;;9.40;;
34960;SDS011;30789;52.030;7.110;2024-01-30T00:05:18;14.00;;;9.25;;
34960;SDS011;30789;52.030;7.110;2024-01-30T00:07:44;13.05;;;8.85;;
34960;SDS011;30789;52.030;7.110;2024-01-30T00:10:11;13.60;;;9.52;;
34960;SDS011;30789;52.030;7.110;2024-01-30T00:12:37;14.32;;;9.43;;
34960;SDS011;30789;52.030;7.110;2024-01-30T00:15:04;10.30;;;8.30;;
34960;SDS011;30789;52.030;7.110;2024-01-30T00:17:34;13.15;;;9.80;;
34960;SDS011;30789;52.030;7.110;2024-01-30T00:20:02;14.85;;;9.55;;
34960;SDS011;30789;52.030;7.110;2024-01-30T00:22:30;13.48;;;9.38;;
34960;SDS011;30789;52.030;7.110;2024-01-30T00:24:57;17.05;;;9.07;;
34960;SDS011;30789;52.030;7.110;2024-01-30T00:27:23;12.65;;;8.80;;
34960;SDS011;30789;52.030;7.110;2024-01-30T00:29:51;15.40;;;9.23;;
34960;SDS011;30789;52.030;7.110;2024-01-30T00:32:17;13.80;;;9.00;;
34960;SDS011;30789;52.030;7.110;2024-01-30T00:34:45;12.65;;;9.07;;
34960;SDS011;30789;52.030;7.110;2024-01-30T00:37:13;15.13;;;8.88;;
34960;SDS011;30789;52.030;7.110;2024-01-30T00:39:39;14.32;;;9.45;;
34960;SDS011;30789;52.030;7.110;2024-01-30T00:42:06;14.98;;;9.27;;
34960;SDS011;30789;52.030;7.110;2024-01-30T00:44:34;15.48;;;9.10;;
34960;SDS011;30789;52.030;7.110;2024-01-30T00:47:02;13.45;;;8.77;;
34960;SDS011;30789;52.030;7.110;2024-01-30T00:49:29;14.05;;;8.48;;
34960;SDS011;30789;52.030;7.110;2024-01-30T00:51:55;15.07;;;9.57;;
34960;SDS011;30789;52.030;7.110;2024-01-30T00:54:23;13.45;;;8.45;;
34960;SDS011;30789;52.030;7.110;2024-01-30T00:56:50;13.93;;;9.40;;
34960;SDS011;30789;52.030;7.110;2024-01-30T00:59:16;16.73;;;9.68;;
34960;SDS011;30789;52.030;7.110;2024-01-30T01:01:43;13.25;;;8.27;;
34960;SDS011;30789;52.030;7.110;2024-01-30T01:04:09;13.77;;;9.25;;
34960;SDS011;30789;52.030;7.110;2024-01-30T01:06:36;12.77;;;9.40;;
34960;SDS011;30789;52.030;7.110;2024-01-30T01:09:03;12.10;;;8.57;;
34960;SDS011;30789;52.030;7.110;2024-01-30T01:11:31;13.57;;;8.90;;
34960;SDS011;30789;52.030;7.110;2024-01-30T01:13:57;13.50;;;9.50;;
34960;SDS011;30789;52.030;7.110;2024-01-30T01:16:24;12.02;;;9.38;;
34960;SDS011;30789;52.030;7.110;2024-01-30T01:18:50;13.35;;;9.65;;
34960;SDS011;30789;52.030;7.110;2024-01-30T01:21:17;14.82;;;9.25;;
34960;SDS011;30789;52.030;7.110;2024-01-30T01:23:43;12.48;;;8.93;;
34960;SDS011;30789;52.030;7.110;2024-01-30T01:26:10;13.15;;;9.10;;
34960;SDS011;30789;52.030;7.110;2024-01-30T01:28:38;11.82;;;9.32;;
34960;SDS011;30789;52.030;7.110;2024-01-30T01:31:05;15.25;;;9.52;;
34960;SDS011;30789;52.030;7.110;2024-01-30T01:33:32;15.13;;;9.30;;
34960;SDS011;30789;52.030;7.110;2024-01-30T01:35:58;13.55;;;9.77;;
34960;SDS011;30789;52.030;7.110;2024-01-30T01:38:27;16.65;;;9.15;;
34960;SDS011;30789;52.030;7.110;2024-01-30T01:40:54;14.00;;;9.77;;
34960;SDS011;30789;52.030;7.110;2024-01-30T01:43:20;12.07;;;8.98;;
34960;SDS011;30789;52.030;7.110;2024-01-30T01:45:48;13.43;;;8.88;;
34960;SDS011;30789;52.030;7.110;2024-01-30T01:48:15;12.63;;;9.02;;
34960;SDS011;30789;52.030;7.110;2024-01-30T01:50:42;16.45;;;9.25;;
34960;SDS011;30789;52.030;7.110;2024-01-30T01:53:09;16.73;;;9.48;;
34960;SDS011;30789;52.030;7.110;2024-01-30T01:55:36;14.10;;;10.02;;
34960;SDS011;30789;52.030;7.110;2024-01-30T01:58:03;11.27;;;8.98;;
34960;SDS011;30789;52.030;7.110;2024-01-30T02:00:30;14.43;;;9.48;;
34960;SDS011;30789;52.030;7.110;2024-01-30T02:02:59;13.40;;;9.07;;
34960;SDS011;30789;52.030;7.110;2024-01-30T02:05:26;13.25;;;9.50;;
34960;SDS011;30789;52.030;7.110;2024-01-30T02:07:53;14.88;;;8.93;;
34960;SDS011;30789;52.030;7.110;2024-01-30T02:10:20;17.23;;;9.80;;
34960;SDS011;30789;52.030;7.110;2024-01-30T02:12:48;13.13;;;9.23;;
34960;SDS011;30789;52.030;7.110;2024-01-30T02:15:14;12.88;;;8.88;;
34960;SDS011;30789;52.030;7.110;2024-01-30T02:17:41;13.25;;;9.18;;
34960;SDS011;30789;52.030;7.110;2024-01-30T02:20:10;17.17;;;9.07;;
34960;SDS011;30789;52.030;7.110;2024-01-30T02:22:39;12.60;;;8.57;;
34960;SDS011;30789;52.030;7.110;2024-01-30T02:25:07;13.27;;;9.55;;
34960;SDS011;30789;52.030;7.110;2024-01-30T02:27:34;14.60;;;8.57;;
34960;SDS011;30789;52.030;7.110;2024-01-30T02:30:01;14.15;;;8.48;;
34960;SDS011;30789;52.030;7.110;2024-01-30T02:32:27;13.88;;;8.93;;
34960;SDS011;30789;52.030;7.110;2024-01-30T02:34:54;13.63;;;8.57;;
34960;SDS011;30789;52.030;7.110;2024-01-30T02:37:20;14.30;;;8.90;;
34960;SDS011;30789;52.030;7.110;2024-01-30T02:39:48;11.30;;;9.20;;
34960;SDS011;30789;52.030;7.110;2024-01-30T02:42:15;11.27;;;8.40;;
34960;SDS011;30789;52.030;7.110;2024-01-30T02:44:41;14.43;;;9.90;;
34960;SDS011;30789;52.030;7.110;2024-01-30T02:47:08;14.30;;;9.27;;
34960;SDS011;30789;52.030;7.110;2024-01-30T02:49:34;13.27;;;8.90;;
34960;SDS011;30789;52.030;7.110;2024-01-30T02:52:01;11.40;;;8.75;;
34960;SDS011;30789;52.030;7.110;2024-01-30T02:54:27;13.45;;;8.23;;
34960;SDS011;30789;52.030;7.110;2024-01-30T02:56:57;13.95;;;8.93;;
34960;SDS011;30789;52.030;7.110;2024-01-30T02:59:23;15.40;;;9.07;;
34960;SDS011;30789;52.030;7.110;2024-01-30T03:01:50;11.60;;;8.55;;
34960;SDS011;30789;52.030;7.110;2024-01-30T03:04:16;13.02;;;9.23;;
34960;SDS011;30789;52.030;7.110;2024-01-30T03:06:44;11.55;;;8.70;;
34960;SDS011;30789;52.030;7.110;2024-01-30T03:09:12;14.68;;;9.35;;
34960;SDS011;30789;52.030;7.110;2024-01-30T03:11:38;14.25;;;9.15;;
34960;SDS011;30789;52.030;7.110;2024-01-30T03:14:06;14.82;;;9.40;;
34960;SDS011;30789;52.030;7.110;2024-01-30T03:16:33;12.45;;;8.98;;
34960;SDS011;30789;52.030;7.110;2024-01-30T03:18:59;13.07;;;8.23;;
34960;SDS011;30789;52.030;7.110;2024-01-30T03:21:27;12.60;;;9.20;;
34960;SDS011;30789;52.030;7.110;2024-01-30T03:23:53;15.25;;;9.95;;
34960;SDS011;30789;52.030;7.110;2024-01-30T03:26:20;13.07;;;9.13;;
34960;SDS011;30789;52.030;7.110;2024-01-30T03:28:46;11.70;;;8.43;;
34960;SDS011;30789;52.030;7.110;2024-01-30T03:31:15;11.82;;;8.75;;
34960;SDS011;30789;52.030;7.110;2024-01-30T03:33:42;12.35;;;8.60;;
34960;SDS011;30789;52.030;7.110;2024-01-30T03:36:09;11.77;;;8.75;;
34960;SDS011;30789;52.030;7.110;2024-01-30T03:38:35;14.50;;;9.05;;
34960;SDS011;30789;52.030;7.110;2024-01-30T03:41:02;15.35;;;8.65;;
34960;SDS011;30789;52.030;7.110;2024-01-30T03:43:29;14.75;;;8.52;;
34960;SDS011;30789;52.030;7.110;2024-01-30T03:45:55;15.45;;;8.88;;
34960;SDS011;30789;52.030;7.110;2024-01-30T03:48:23;13.52;;;8.38;;
34960;SDS011;30789;52.030;7.110;2024-01-30T03:50:50;13.48;;;8.85;;
34960;SDS011;30789;52.030;7.110;2024-01-30T03:53:17;13.02;;;8.93;;
34960;SDS011;30789;52.030;7.110;2024-01-30T03:55:43;17.98;;;9.05;;
34960;SDS011;30789;52.030;7.110;2024-01-30T03:58:10;12.82;;;9.48;;
34960;SDS011;30789;52.030;7.110;2024-01-30T04:00:37;15.63;;;9.80;;
34960;SDS011;30789;52.030;7.110;2024-01-30T04:03:03;14.80;;;9.07;;
34960;SDS011;30789;52.030;7.110;2024-01-30T04:05:32;15.40;;;9.10;;
34960;SDS011;30789;52.030;7.110;2024-01-30T04:07:59;16.42;;;8.82;;
34960;SDS011;30789;52.030;7.110;2024-01-30T04:10:25;15.10;;;9.60;;
34960;SDS011;30789;52.030;7.110;2024-01-30T04:12:52;14.13;;;8.98;;
34960;SDS011;30789;52.030;7.110;2024-01-30T04:15:19;13.82;;;9.00;;
34960;SDS011;30789;52.030;7.110;2024-01-30T04:17:45;16.60;;;9.45;;
34960;SDS011;30789;52.030;7.110;2024-01-30T04:20:13;14.18;;;10.23;;
34960;SDS011;30789;52.030;7.110;2024-01-30T04:22:42;12.60;;;9.65;;
34960;SDS011;30789;52.030;7.110;2024-01-30T04:25:09;13.90;;;8.82;;
34960;SDS011;30789;52.030;7.110;2024-01-30T04:27:35;12.68;;;9.32;;
34960;SDS011;30789;52.030;7.110;2024-01-30T04:30:02;14.38;;;9.23;;
34960;SDS011;30789;52.030;7.110;2024-01-30T04:32:29;12.93;;;9.07;;
34960;SDS011;30789;52.030;7.110;2024-01-30T04:34:56;14.90;;;8.63;;
34960;SDS011;30789;52.030;7.110;2024-01-30T04:37:22;13.80;;;9.50;;
34960;SDS011;30789;52.030;7.110;2024-01-30T04:39:51;14.55;;;9.48;;
34960;SDS011;30789;52.030;7.110;2024-01-30T04:42:17;14.30;;;10.10;;
34960;SDS011;30789;52.030;7.110;2024-01-30T04:44:44;14.20;;;9.38;;
34960;SDS011;30789;52.030;7.110;2024-01-30T04:47:10;17.70;;;9.30;;
34960;SDS011;30789;52.030;7.110;2024-01-30T04:49:37;14.15;;;9.05;;
34960;SDS011;30789;52.030;7.110;2024-01-30T04:52:04;12.48;;;8.55;;
34960;SDS011;30789;52.030;7.110;2024-01-30T04:54:31;13.52;;;9.40;;
34960;SDS011;30789;52.030;7.110;2024-01-30T04:56:59;14.98;;;8.77;;
34960;SDS011;30789;52.030;7.110;2024-01-30T04:59:26;12.02;;;8.65;;
34960;SDS011;30789;52.030;7.110;2024-01-30T05:01:52;12.63;;;9.10;;
34960;SDS011;30789;52.030;7.110;2024-01-30T05:04:19;15.23;;;8.77;;
34960;SDS011;30789;52.030;7.110;2024-01-30T05:06:45;16.98;;;9.73;;
34960;SDS011;30789;52.030;7.110;2024-01-30T05:09:12;12.63;;;9.55;;
34960;SDS011;30789;52.030;7.110;2024-01-30T05:11:39;12.88;;;9.10;;
34960;SDS011;30789;52.030;7.110;2024-01-30T05:14:07;12.93;;;8.73;;
34960;SDS011;30789;52.030;7.110;2024-01-30T05:16:34;11.73;;;8.65;;
34960;SDS011;30789;52.030;7.110;2024-01-30T05:19:01;13.07;;;9.18;;
34960;SDS011;30789;52.030;7.110;2024-01-30T05:21:27;13.88;;;9.07;;
34960;SDS011;30789;52.030;7.110;2024-01-30T05:23:54;14.18;;;9.30;;
34960;SDS011;30789;52.030;7.110;2024-01-30T05:26:20;11.27;;;8.30;;
34960;SDS011;30789;52.030;7.110;2024-01-30T05:28:47;15.02;;;8.10;;
34960;SDS011;30789;52.030;7.110;2024-01-30T05:31:16;15.73;;;8.73;;
34960;SDS011;30789;52.030;7.110;2024-01-30T05:33:42;12.25;;;8.38;;
34960;SDS011;30789;52.030;7.110;2024-01-30T05:36:11;10.23;;;8.75;;
34960;SDS011;30789;52.030;7.110;2024-01-30T05:38:38;14.48;;;8.82;;
34960;SDS011;30789;52.030;7.110;2024-01-30T05:41:04;14.15;;;8.85;;
34960;SDS011;30789;52.030;7.110;2024-01-30T05:43:31;12.27;;;7.85;;
34960;SDS011;30789;52.030;7.110;2024-01-30T05:45:57;13.98;;;8.68;;
34960;SDS011;30789;52.030;7.110;2024-01-30T05:48:25;14.98;;;9.20;;
34960;SDS011;30789;52.030;7.110;2024-01-30T05:50:52;13.07;;;8.95;;
34960;SDS011;30789;52.030;7.110;2024-01-30T05:53:18;12.15;;;8.52;;
34960;SDS011;30789;52.030;7.110;2024-01-30T05:55:45;14.38;;;8.95;;
34960;SDS011;30789;52.030;7.110;2024-01-30T05:58:11;13.50;;;8.43;;
34960;SDS011;30789;52.030;7.110;2024-01-30T06:00:38;13.43;;;8.85;;
34960;SDS011;30789;52.030;7.110;2024-01-30T06:03:04;14.63;;;8.45;;
34960;SDS011;30789;52.030;7.110;2024-01-30T06:05:33;12.50;;;8.55;;
34960;SDS011;30789;52.030;7.110;2024-01-30T06:07:59;10.98;;;8.93;;
34960;SDS011;30789;52.030;7.110;2024-01-30T06:10:26;15.88;;;9.20;;
34960;SDS011;30789;52.030;7.110;2024-01-30T06:12:52;14.88;;;9.50;;
34960;SDS011;30789;52.030;7.110;2024-01-30T06:15:19;14.55;;;9.88;;
34960;SDS011;30789;52.030;7.110;2024-01-30T06:17:45;12.45;;;9.27;;
34960;SDS011;30789;52.030;7.110;2024-01-30T06:20:12;14.88;;;9.82;;
34960;SDS011;30789;52.030;7.110;2024-01-30T06:22:40;15.93;;;9.88;;
34960;SDS011;30789;52.030;7.110;2024-01-30T06:25:07;16.00;;;9.90;;
34960;SDS011;30789;52.030;7.110;2024-01-30T06:27:34;15.93;;;10.55;;
34960;SDS011;30789;52.030;7.110;2024-01-30T06:30:01;14.98;;;9.60;;
34960;SDS011;30789;52.030;7.110;2024-01-30T06:32:27;14.45;;;9.20;;
34960;SDS011;30789;52.030;7.110;2024-01-30T06:34:59;15.50;;;9.55;;
34960;SDS011;30789;52.030;7.110;2024-01-30T06:37:25;12.65;;;8.85;;
34960;SDS011;30789;52.030;7.110;2024-01-30T06:39:53;12.40;;;8.43;;
34960;SDS011;30789;52.030;7.110;2024-01-30T06:42:20;13.73;;;8.68;;
34960;SDS011;30789;52.030;7.110;2024-01-30T06:44:46;13.73;;;8.20;;
34960;SDS011;30789;52.030;7.110;2024-01-30T06:47:13;13.00;;;9.07;;
34960;SDS011;30789;52.030;7.110;2024-01-30T06:49:40;12.52;;;9.18;;
34960;SDS011;30789;52.030;7.110;2024-01-30T07:29:05;14.40;;;8.63;;
34960;SDS011;30789;52.030;7.110;2024-01-30T07:31:48;15.35;;;7.93;;
34960;SDS011;30789;52.030;7.110;2024-01-30T07:34:17;13.80;;;8.07;;
34960;SDS011;30789;52.030;7.110;2024-01-30T07:37:04;10.18;;;6.95;;
34960;SDS011;30789;52.030;7.110;2024-01-30T07:40:15;13.15;;;7.85;;
34960;SDS011;30789;52.030;7.110;2024-01-30T07:52:19;12.20;;;7.75;;
34960;SDS011;30789;52.030;7.110;2024-01-30T08:01:59;12.10;;;7.40;;
34960;SDS011;30789;52.030;7.110;2024-01-30T08:05:25;13.93;;;6.82;;
34960;SDS011;30789;52.030;7.110;2024-01-30T08:07:59;12.70;;;8.20;;
34960;SDS011;30789;52.030;7.110;2024-01-30T08:10:27;10.57;;;6.82;;
34960;SDS011;30789;52.030;7.110;2024-01-30T08:13:00;11.75;;;8.15;;
34960;SDS011;30789;52.030;7.110;2024-01-30T08:15:34;13.82;;;7.78;;
34960;SDS011;30789;52.030;7.110;2024-01-30T08:18:09;11.80;;;7.63;;
34960;SDS011;30789;52.030;7.110;2024-01-30T08:20:40;10.32;;;7.28;;
34960;SDS011;30789;52.030;7.110;2024-01-30T08:24:16;12.52;;;7.28;;
34960;SDS011;30789;52.030;7.110;2024-01-30T08:30:06;10.73;;;6.85;;
34960;SDS011;30789;52.030;7.110;2024-01-30T08:53:15;8.88;;;6.78;;
34960;SDS011;30789;52.030;7.110;2024-01-30T08:55:50;8.98;;;6.35;;
34960;SDS011;30789;52.030;7.110;2024-01-30T09:59:47;9.75;;;6.43;;
34960;SDS011;30789;52.030;7.110;2024-01-30T10:02:18;14.55;;;7.13;;
34960;SDS011;30789;52.030;7.110;2024-01-30T10:04:54;9.93;;;6.80;;
34960;SDS011;30789;52.030;7.110;2024-01-30T10:07:23;11.50;;;6.22;;
34960;SDS011;30789;52.030;7.110;2024-01-30T10:12:21;12.93;;;6.45;;
34960;SDS011;30789;52.030;7.110;2024-01-30T10:14:50;13.25;;;6.75;;
34960;SDS011;30789;52.030;7.110;2024-01-30T10:17:20;10.20;;;6.88;;
34960;SDS011;30789;52.030;7.110;2024-01-30T10:19:54;11.02;;;6.40;;
34960;SDS011;30789;52.030;7.110;2024-01-30T10:23:09;17.38;;;8.98;;
34960;SDS011;30789;52.030;7.110;2024-01-30T10:29:26;16.02;;;8.23;;
34960;SDS011;30789;52.030;7.110;2024-01-30T10:31:42;13.70;;;7.32;;
34960;SDS011;30789;52.030;7.110;2024-01-30T10:38:21;12.45;;;6.60;;
34960;SDS011;30789;52.030;7.110;2024-01-30T10:41:00;10.88;;;6.68;;
34960;SDS011;30789;52.030;7.110;2024-01-30T10:43:50;14.30;;;7.57;;
34960;SDS011;30789;52.030;7.110;2024-01-30T10:46:59;16.67;;;6.47;;
34960;SDS011;30789;52.030;7.110;2024-01-30T10:49:41;11.90;;;7.07;;
34960;SDS011;30789;52.030;7.110;2024-01-30T10:52:09;11.57;;;7.05;;
34960;SDS011;30789;52.030;7.110;2024-01-30T10:54:41;12.18;;;7.30;;
34960;SDS011;30789;52.030;7.110;2024-01-30T10:57:25;9.20;;;6.78;;
34960;SDS011;30789;52.030;7.110;2024-01-30T11:05:25;13.00;;;6.72;;
34960;SDS011;30789;52.030;7.110;2024-01-30T11:08:31;11.48;;;7.53;;
34960;SDS011;30789;52.030;7.110;2024-01-30T11:11:01;10.63;;;7.57;;
34960;SDS011;30789;52.030;7.110;2024-01-30T11:13:44;14.63;;;7.47;;
34960;SDS011;30789;52.030;7.110;2024-01-30T11:16:13;13.05;;;7.72;;
34960;SDS011;30789;52.030;7.110;2024-01-30T11:18:52;11.50;;;8.02;;
34960;SDS011;30789;52.030;7.110;2024-01-30T11:21:34;11.40;;;7.82;;
34960;SDS011;30789;52.030;7.110;2024-01-30T11:24:14;11.27;;;7.43;;
34960;SDS011;30789;52.030;7.110;2024-01-30T11:32:30;10.23;;;7.35;;
34960;SDS011;30789;52.030;7.110;2024-01-30T11:34:58;10.93;;;7.38;;
34960;SDS011;30789;52.030;7.110;2024-01-30T11:37:25;12.90;;;7.47;;
34960;SDS011;30789;52.030;7.110;2024-01-30T11:39:52;14.98;;;7.53;;
34960;SDS011;30789;52.030;7.110;2024-01-30T11:42:23;10.18;;;7.38;;
34960;SDS011;30789;52.030;7.110;2024-01-30T11:44:53;14.02;;;7.97;;
34960;SDS011;30789;52.030;7.110;2024-01-30T11:47:22;11.27;;;7.38;;
34960;SDS011;30789;52.030;7.110;2024-01-30T11:49:49;11.98;;;7.15;;
34960;SDS011;30789;52.030;7.110;2024-01-30T11:52:22;10.10;;;7.43;;
34960;SDS011;30789;52.030;7.110;2024-01-30T11:54:48;12.70;;;7.20;;
34960;SDS011;30789;52.030;7.110;2024-01-30T11:57:15;15.25;;;8.60;;
34960;SDS011;30789;52.030;7.110;2024-01-30T11:59:43;12.05;;;7.28;;
34960;SDS011;30789;52.030;7.110;2024-01-30T12:02:15;15.98;;;8.50;;
34960;SDS011;30789;52.030;7.110;2024-01-30T12:04:43;13.57;;;7.85;;
34960;SDS011;30789;52.030;7.110;2024-01-30T12:07:12;13.70;;;8.23;;
34960;SDS011;30789;52.030;7.110;2024-01-30T12:09:51;11.48;;;7.20;;
34960;SDS011;30789;52.030;7.110;2024-01-30T12:12:18;12.73;;;7.68;;
34960;SDS011;30789;52.030;7.110;2024-01-30T12:14:47;14.38;;;7.97;;
34960;SDS011;30789;52.030;7.110;2024-01-30T12:17:31;13.70;;;7.75;;
34960;SDS011;30789;52.030;7.110;2024-01-30T12:20:03;13.70;;;7.60;;
34960;SDS011;30789;52.030;7.110;2024-01-30T12:22:35;9.10;;;7.18;;
34960;SDS011;30789;52.030;7.110;2024-01-30T12:25:07;11.23;;;7.20;;
34960;SDS011;30789;52.030;7.110;2024-01-30T12:27:34;14.77;;;8.10;;
34960;SDS011;30789;52.030;7.110;2024-01-30T12:30:02;13.38;;;7.70;;
34960;SDS011;30789;52.030;7.110;2024-01-30T12:32:33;13.60;;;8.38;;
34960;SDS011;30789;52.030;7.110;2024-01-30T12:35:01;11.70;;;7.85;;
34960;SDS011;30789;52.030;7.110;2024-01-30T12:37:29;15.82;;;8.30;;
34960;SDS011;30789;52.030;7.110;2024-01-30T12:39:59;10.77;;;7.40;;
34960;SDS011;30789;52.030;7.110;2024-01-30T12:42:29;11.80;;;8.20;;
34960;SDS011;30789;52.030;7.110;2024-01-30T12:44:56;13.48;;;7.70;;
34960;SDS011;30789;52.030;7.110;2024-01-30T12:47:22;13.82;;;7.30;;
34960;SDS011;30789;52.030;7.110;2024-01-30T12:49:49;11.10;;;7.22;;
34960;SDS011;30789;52.030;7.110;2024-01-30T12:52:20;13.70;;;7.28;;
34960;SDS011;30789;52.030;7.110;2024-01-30T12:54:52;13.40;;;7.47;;
34960;SDS011;30789;52.030;7.110;2024-01-30T12:57:22;12.10;;;7.38;;
34960;SDS011;30789;52.030;7.110;2024-01-30T12:59:52;12.75;;;7.63;;
34960;SDS011;30789;52.030;7.110;2024-01-30T13:02:21;10.90;;;7.10;;
34960;SDS011;30789;52.030;7.110;2024-01-30T13:04:48;10.90;;;7.85;;
34960;SDS011;30789;52.030;7.110;2024-01-30T13:07:15;14.35;;;6.88;;
34960;SDS011;30789;52.030;7.110;2024-01-30T13:09:42;15.35;;;7.57;;
34960;SDS011;30789;52.030;7.110;2024-01-30T13:12:09;13.15;;;7.38;;
34960;SDS011;30789;52.030;7.110;2024-01-30T13:14:35;9.68;;;7.13;;
34960;SDS011;30789;52.030;7.110;2024-01-30T13:17:04;9.68;;;7.25;;
34960;SDS011;30789;52.030;7.110;2024-01-30T13:19:31;13.82;;;7.32;;
34960;SDS011;30789;52.030;7.110;2024-01-30T13:21:57;14.50;;;8.57;;
34960;SDS011;30789;52.030;7.110;2024-01-30T13:24:24;39.00;;;21.13;;
34960;SDS011;30789;52.030;7.110;2024-01-30T13:26:52;40.60;;;19.88;;
34960;SDS011;30789;52.030;7.110;2024-01-30T13:29:20;11.73;;;8.27;;
34960;SDS011;30789;52.030;7.110;2024-01-30T13:31:46;12.48;;;7.95;;
34960;SDS011;30789;52.030;7.110;2024-01-30T13:34:14;12.23;;;7.75;;
34960;SDS011;30789;52.030;7.110;2024-01-30T13:36:41;14.13;;;7.75;;
34960;SDS011;30789;52.030;7.110;2024-01-30T13:39:08;12.07;;;7.43;;
34960;SDS011;30789;52.030;7.110;2024-01-30T13:41:35;14.02;;;8.38;;
34960;SDS011;30789;52.030;7.110;2024-01-30T13:44:03;14.32;;;8.10;;
34960;SDS011;30789;52.030;7.110;2024-01-30T13:46:33;12.85;;;7.97;;
34960;SDS011;30789;52.030;7.110;2024-01-30T13:49:00;12.95;;;7.78;;
34960;SDS011;30789;52.030;7.110;2024-01-30T13:51:28;14.10;;;8.32;;
34960;SDS011;30789;52.030;7.110;2024-01-30T13:53:55;14.57;;;8.35;;
34960;SDS011;30789;52.030;7.110;2024-01-30T13:56:21;14.63;;;7.20;;
34960;SDS011;30789;52.030;7.110;2024-01-30T13:58:48;13.35;;;6.80;;
34960;SDS011;30789;52.030;7.110;2024-01-30T14:01:15;12.02;;;6.75;;
34960;SDS011;30789;52.030;7.110;2024-01-30T14:03:42;13.70;;;7.68;;
34960;SDS011;30789;52.030;7.110;2024-01-30T14:06:08;12.95;;;7.15;;
34960;SDS011;30789;52.030;7.110;2024-01-30T14:08:37;12.43;;;6.68;;
34960;SDS011;30789;52.030;7.110;2024-01-30T14:11:03;10.77;;;6.93;;
34960;SDS011;30789;52.030;7.110;2024-01-30T14:13:30;14.18;;;7.43;;
34960;SDS011;30789;52.030;7.110;2024-01-30T14:15:57;10.30;;;6.80;;
34960;SDS011;30789;52.030;7.110;2024-01-30T14:18:24;13.50;;;8.23;;
34960;SDS011;30789;52.030;7.110;2024-01-30T14:20:51;12.20;;;6.35;;
34960;SDS011;30789;52.030;7.110;2024-01-30T14:23:19;10.02;;;6.32;;
34960;SDS011;30789;52.030;7.110;2024-01-30T14:25:48;11.93;;;7.07;;
34960;SDS011;30789;52.030;7.110;2024-01-30T14:28:16;11.55;;;6.55;;
34960;SDS011;30789;52.030;7.110;2024-01-30T14:30:45;16.38;;;6.78;;
34960;SDS011;30789;52.030;7.110;2024-01-30T14:33:12;10.65;;;6.43;;
34960;SDS011;30789;52.030;7.110;2024-01-30T14:35:38;10.00;;;5.90;;
34960;SDS011;30789;52.030;7.110;2024-01-30T14:38:05;12.55;;;5.97;;
34960;SDS011;30789;52.030;7.110;2024-01-30T14:40:32;8.82;;;4.95;;
34960;SDS011;30789;52.030;7.110;2024-01-30T14:43:00;11.77;;;5.60;;
34960;SDS011;30789;52.030;7.110;2024-01-30T14:45:28;10.05;;;5.50;;
34960;SDS011;30789;52.030;7.110;2024-01-30T14:47:56;6.50;;;4.50;;
34960;SDS011;30789;52.030;7.110;2024-01-30T14:50:24;6.90;;;4.55;;
34960;SDS011;30789;52.030;7.110;2024-01-30T14:52:51;9.23;;;4.43;;
34960;SDS011;30789;52.030;7.110;2024-01-30T14:55:18;8.23;;;4.07;;
34960;SDS011;30789;52.030;7.110;2024-01-30T14:57:45;9.55;;;4.13;;
34960;SDS011;30789;52.030;7.110;2024-01-30T15:00:14;12.90;;;4.50;;
34960;SDS011;30789;52.030;7.110;2024-01-30T15:02:41;6.68;;;4.10;;
34960;SDS011;30789;52.030;7.110;2024-01-30T15:05:08;8.07;;;3.67;;
34960;SDS011;30789;52.030;7.110;2024-01-30T15:07:36;10.25;;;4.18;;
34960;SDS011;30789;52.030;7.110;2024-01-30T15:10:02;4.90;;;3.60;;
34960;SDS011;30789;52.030;7.110;2024-01-30T15:12:30;8.23;;;3.20;;
34960;SDS011;30789;52.030;7.110;2024-01-30T15:14:57;9.40;;;3.10;;
34960;SDS011;30789;52.030;7.110;2024-01-30T15:17:25;3.95;;;2.47;;
34960;SDS011;30789;52.030;7.110;2024-01-30T15:19:52;7.13;;;2.75;;
34960;SDS011;30789;52.030;7.110;2024-01-30T15:22:18;3.55;;;2.15;;
34960;SDS011;30789;52.030;7.110;2024-01-30T15:24:45;3.97;;;2.13;;
34960;SDS011;30789;52.030;7.110;2024-01-30T15:27:12;7.03;;;2.65;;
34960;SDS011;30789;52.030;7.110;2024-01-30T15:29:38;4.30;;;2.03;;
34960;SDS011;30789;52.030;7.110;2024-01-30T15:32:05;7.07;;;2.45;;
34960;SDS011;30789;52.030;7.110;2024-01-30T15:34:34;6.60;;;2.25;;
34960;SDS011;30789;52.030;7.110;2024-01-30T15:37:00;4.88;;;2.28;;
34960;SDS011;30789;52.030;7.110;2024-01-30T15:39:30;3.28;;;1.70;;
34960;SDS011;30789;52.030;7.110;2024-01-30T15:41:57;5.25;;;1.60;;
34960;SDS011;30789;52.030;7.110;2024-01-30T15:44:23;2.03;;;1.20;;
34960;SDS011;30789;52.030;7.110;2024-01-30T15:46:50;2.05;;;1.40;;
34960;SDS011;30789;52.030;7.110;2024-01-30T15:49:17;2.55;;;1.42;;
34960;SDS011;30789;52.030;7.110;2024-01-30T15:51:45;1.92;;;1.33;;
34960;SDS011;30789;52.030;7.110;2024-01-30T16:09:51;2.55;;;0.80;;
34960;SDS011;30789;52.030;7.110;2024-01-30T16:11:10;2.00;;;1.15;;
34960;SDS011;30789;52.030;7.110;2024-01-30T16:13:42;2.30;;;1.05;;
34960;SDS011;30789;52.030;7.110;2024-01-30T16:16:16;3.85;;;1.13;;
34960;SDS011;30789;52.030;7.110;2024-01-30T16:19:11;3.75;;;1.60;;
34960;SDS011;30789;52.030;7.110;2024-01-30T16:21:42;2.28;;;1.00;;
34960;SDS011;30789;52.030;7.110;2024-01-30T16:24:17;2.72;;;0.95;;
34960;SDS011;30789;52.030;7.110;2024-01-30T16:26:49;1.38;;;0.98;;
34960;SDS011;30789;52.030;7.110;2024-01-30T16:29:18;2.05;;;0.88;;
34960;SDS011;30789;52.030;7.110;2024-01-30T16:31:54;2.67;;;1.75;;
34960;SDS011;30789;52.030;7.110;2024-01-30T16:34:23;6.55;;;3.75;;
34960;SDS011;30789;52.030;7.110;2024-01-30T16:36:53;4.50;;;2.90;;
34960;SDS011;30789;52.030;7.110;2024-01-30T16:39:23;3.85;;;2.95;;
34960;SDS011;30789;52.030;7.110;2024-01-30T16:41:50;3.08;;;2.20;;
34960;SDS011;30789;52.030;7.110;2024-01-30T16:44:25;3.42;;;2.25;;
34960;SDS011;30789;52.030;7.110;2024-01-30T16:46:52;7.55;;;2.50;;
34960;SDS011;30789;52.030;7.110;2024-01-30T16:49:22;5.22;;;2.50;;
34960;SDS011;30789;52.030;7.110;2024-01-30T16:51:53;9.10;;;2.90;;
34960;SDS011;30789;52.030;7.110;2024-01-30T16:54:26;4.40;;;2.92;;
34960;SDS011;30789;52.030;7.110;2024-01-30T16:59:55;6.35;;;3.10;;
34960;SDS011;30789;52.030;7.110;2024-01-30T17:02:21;4.75;;;3.03;;
34960;SDS011;30789;52.030;7.110;2024-01-30T17:04:48;5.82;;;3.03;;
34960;SDS011;30789;52.030;7.110;2024-01-30T17:07:16;7.47;;;2.83;;
34960;SDS011;30789;52.030;7.110;2024-01-30T17:09:43;5.43;;;3.08;;
34960;SDS011;30789;52.030;7.110;2024-01-30T17:12:09;5.18;;;3.22;;
34960;SDS011;30789;52.030;7.110;2024-01-30T17:14:38;5.18;;;3.35;;
34960;SDS011;30789;52.030;7.110;2024-01-30T17:17:06;6.78;;;3.60;;
34960;SDS011;30789;52.030;7.110;2024-01-30T17:19:34;5.43;;;3.47;;
34960;SDS011;30789;52.030;7.110;2024-01-30T17:22:00;3.97;;;2.92;;
34960;SDS011;30789;52.030;7.110;2024-01-30T17:24:29;5.57;;;3.42;;
34960;SDS011;30789;52.030;7.110;2024-01-30T17:26:56;5.63;;;3.50;;
34960;SDS011;30789;52.030;7.110;2024-01-30T17:29:22;5.43;;;3.33;;
34960;SDS011;30789;52.030;7.110;2024-01-30T17:31:49;7.32;;;3.92;;
34960;SDS011;30789;52.030;7.110;2024-01-30T17:34:16;6.72;;;4.50;;
34960;SDS011;30789;52.030;7.110;2024-01-30T17:36:43;8.98;;;4.88;;
34960;SDS011;30789;52.030;7.110;2024-01-30T17:39:09;7.55;;;5.28;;
34960;SDS011;30789;52.030;7.110;2024-01-30T17:41:38;6.75;;;4.57;;
34960;SDS011;30789;52.030;7.110;2024-01-30T19:45:36;17.63;;;10.02;;